sensor_id;sensor_type;location;lat;lon;timestamp;temperature;humidity
6752;DHT22;3413;47.680;9.166;2023-03-01T00:02:22;4.90;87.70
6752;DHT22;3413;47.680;9.166;2023-03-01T00:07:27;5.00;87.70
6752;DHT22;3413;47.680;9.166;2023-03-01T00:12:29;5.00;87.70
6752;DHT22;3413;47.680;9.166;2023-03-01T00:17:31;5.00;87.70
6752;DHT22;3413;47.680;9.166;2023-03-01T00:22:33;5.10;87.80
6752;DHT22;3413;47.680;9.166;2023-03-01T00:27:34;5.00;87.70
6752;DHT22;3413;47.680;9.166;2023-03-01T00:32:36;5.00;87.70
6752;DHT22;3413;47.680;9.166;2023-03-01T00:37:38;5.00;87.80
6752;DHT22;3413;47.680;9.166;2023-03-01T00:42:42;5.00;87.80
6752;DHT22;3413;47.680;9.166;2023-03-01T00:47:44;5.10;87.90
6752;DHT22;3413;47.680;9.166;2023-03-01T00:52:46;5.10;87.90
6752;DHT22;3413;47.680;9.166;2023-03-01T00:57:48;5.00;87.80
6752;DHT22;3413;47.680;9.166;2023-03-01T01:02:50;5.10;88.00
6752;DHT22;3413;47.680;9.166;2023-03-01T01:07:51;5.10;88.00
6752;DHT22;3413;47.680;9.166;2023-03-01T01:12:53;5.20;88.00
6752;DHT22;3413;47.680;9.166;2023-03-01T01:17:56;5.10;88.00
6752;DHT22;3413;47.680;9.166;2023-03-01T01:22:58;5.20;88.20
6752;DHT22;3413;47.680;9.166;2023-03-01T01:28:00;5.30;88.30
6752;DHT22;3413;47.680;9.166;2023-03-01T01:33:02;5.30;88.30
6752;DHT22;3413;47.680;9.166;2023-03-01T01:38:04;5.20;88.20
6752;DHT22;3413;47.680;9.166;2023-03-01T01:43:28;5.30;88.30
6752;DHT22;3413;47.680;9.166;2023-03-01T01:48:43;5.30;88.40
6752;DHT22;3413;47.680;9.166;2023-03-01T01:53:51;5.30;88.40
6752;DHT22;3413;47.680;9.166;2023-03-01T01:58:54;5.30;88.40
6752;DHT22;3413;47.680;9.166;2023-03-01T02:03:56;5.30;88.30
6752;DHT22;3413;47.680;9.166;2023-03-01T02:09:02;5.30;88.40
6752;DHT22;3413;47.680;9.166;2023-03-01T02:14:05;5.40;88.50
6752;DHT22;3413;47.680;9.166;2023-03-01T02:19:09;5.40;88.50
6752;DHT22;3413;47.680;9.166;2023-03-01T02:24:18;5.40;88.50
6752;DHT22;3413;47.680;9.166;2023-03-01T02:29:25;5.40;88.60
6752;DHT22;3413;47.680;9.166;2023-03-01T02:34:29;5.40;88.50
6752;DHT22;3413;47.680;9.166;2023-03-01T02:39:46;5.40;88.60
6752;DHT22;3413;47.680;9.166;2023-03-01T02:44:49;5.50;88.70
6752;DHT22;3413;47.680;9.166;2023-03-01T02:49:51;5.50;89.40
6752;DHT22;3413;47.680;9.166;2023-03-01T03:00:08;5.50;88.80
6752;DHT22;3413;47.680;9.166;2023-03-01T03:05:14;5.50;88.80
6752;DHT22;3413;47.680;9.166;2023-03-01T03:10:20;5.50;88.80
6752;DHT22;3413;47.680;9.166;2023-03-01T03:15:23;5.40;88.80
6752;DHT22;3413;47.680;9.166;2023-03-01T03:20:27;5.50;88.90
6752;DHT22;3413;47.680;9.166;2023-03-01T03:25:29;5.50;88.90
6752;DHT22;3413;47.680;9.166;2023-03-01T03:30:31;5.60;89.00
6752;DHT22;3413;47.680;9.166;2023-03-01T03:35:39;5.60;89.00
6752;DHT22;3413;47.680;9.166;2023-03-01T03:40:44;5.60;89.10
6752;DHT22;3413;47.680;9.166;2023-03-01T03:45:51;5.60;89.10
6752;DHT22;3413;47.680;9.166;2023-03-01T03:50:55;5.50;88.90
6752;DHT22;3413;47.680;9.166;2023-03-01T03:55:57;5.50;89.00
6752;DHT22;3413;47.680;9.166;2023-03-01T04:01:00;5.50;89.00
6752;DHT22;3413;47.680;9.166;2023-03-01T04:06:05;5.40;88.90
6752;DHT22;3413;47.680;9.166;2023-03-01T04:11:08;5.40;88.90
6752;DHT22;3413;47.680;9.166;2023-03-01T04:16:28;5.40;89.10
6752;DHT22;3413;47.680;9.166;2023-03-01T04:21:31;5.50;89.10
6752;DHT22;3413;47.680;9.166;2023-03-01T04:26:33;5.50;89.00
6752;DHT22;3413;47.680;9.166;2023-03-01T04:31:35;5.50;89.00
6752;DHT22;3413;47.680;9.166;2023-03-01T04:36:37;5.50;89.00
6752;DHT22;3413;47.680;9.166;2023-03-01T04:41:41;5.40;89.00
6752;DHT22;3413;47.680;9.166;2023-03-01T04:46:44;5.50;89.00
6752;DHT22;3413;47.680;9.166;2023-03-01T04:51:46;5.50;89.10
6752;DHT22;3413;47.680;9.166;2023-03-01T04:56:48;5.50;89.00
6752;DHT22;3413;47.680;9.166;2023-03-01T05:01:51;5.50;89.00
6752;DHT22;3413;47.680;9.166;2023-03-01T05:06:53;5.40;89.00
6752;DHT22;3413;47.680;9.166;2023-03-01T05:11:55;5.50;89.10
6752;DHT22;3413;47.680;9.166;2023-03-01T05:16:57;5.40;89.00
6752;DHT22;3413;47.680;9.166;2023-03-01T05:22:05;5.50;89.20
6752;DHT22;3413;47.680;9.166;2023-03-01T05:27:07;5.50;89.10
6752;DHT22;3413;47.680;9.166;2023-03-01T05:32:09;5.50;89.10
6752;DHT22;3413;47.680;9.166;2023-03-01T05:37:11;5.50;89.20
6752;DHT22;3413;47.680;9.166;2023-03-01T05:42:13;5.50;89.20
6752;DHT22;3413;47.680;9.166;2023-03-01T05:47:15;5.60;89.30
6752;DHT22;3413;47.680;9.166;2023-03-01T05:52:17;5.60;89.40
6752;DHT22;3413;47.680;9.166;2023-03-01T05:57:18;5.70;89.40
6752;DHT22;3413;47.680;9.166;2023-03-01T06:02:20;5.70;89.30
6752;DHT22;3413;47.680;9.166;2023-03-01T06:07:22;5.60;89.30
6752;DHT22;3413;47.680;9.166;2023-03-01T06:12:24;5.60;89.30
6752;DHT22;3413;47.680;9.166;2023-03-01T06:17:28;5.60;89.40
6752;DHT22;3413;47.680;9.166;2023-03-01T06:22:31;5.70;89.50
6752;DHT22;3413;47.680;9.166;2023-03-01T06:27:33;5.70;89.40
6752;DHT22;3413;47.680;9.166;2023-03-01T06:32:34;5.70;89.50
6752;DHT22;3413;47.680;9.166;2023-03-01T06:37:36;5.70;89.40
6752;DHT22;3413;47.680;9.166;2023-03-01T06:42:40;5.70;89.50
6752;DHT22;3413;47.680;9.166;2023-03-01T06:47:42;5.60;89.40
6752;DHT22;3413;47.680;9.166;2023-03-01T06:52:45;5.60;89.60
6752;DHT22;3413;47.680;9.166;2023-03-01T06:57:46;5.60;89.50
6752;DHT22;3413;47.680;9.166;2023-03-01T07:02:48;5.50;90.00
6752;DHT22;3413;47.680;9.166;2023-03-01T07:07:50;5.50;89.50
6752;DHT22;3413;47.680;9.166;2023-03-01T07:12:56;5.50;90.00
6752;DHT22;3413;47.680;9.166;2023-03-01T07:17:58;5.40;89.30
6752;DHT22;3413;47.680;9.166;2023-03-01T07:23:00;5.40;89.40
6752;DHT22;3413;47.680;9.166;2023-03-01T07:28:02;5.50;89.40
6752;DHT22;3413;47.680;9.166;2023-03-01T07:33:04;5.60;89.50
6752;DHT22;3413;47.680;9.166;2023-03-01T07:38:06;5.60;89.50
6752;DHT22;3413;47.680;9.166;2023-03-01T07:43:08;5.60;89.50
6752;DHT22;3413;47.680;9.166;2023-03-01T07:48:09;5.60;89.60
6752;DHT22;3413;47.680;9.166;2023-03-01T07:53:11;5.60;89.60
6752;DHT22;3413;47.680;9.166;2023-03-01T07:58:13;5.60;89.60
6752;DHT22;3413;47.680;9.166;2023-03-01T08:03:15;5.50;89.60
6752;DHT22;3413;47.680;9.166;2023-03-01T08:08:20;5.50;89.60
6752;DHT22;3413;47.680;9.166;2023-03-01T08:13:22;5.60;89.70
6752;DHT22;3413;47.680;9.166;2023-03-01T08:18:25;5.50;89.60
6752;DHT22;3413;47.680;9.166;2023-03-01T08:23:27;5.50;89.60
6752;DHT22;3413;47.680;9.166;2023-03-01T08:28:29;5.50;89.60
6752;DHT22;3413;47.680;9.166;2023-03-01T08:33:30;5.50;89.70
6752;DHT22;3413;47.680;9.166;2023-03-01T08:38:33;5.50;89.70
6752;DHT22;3413;47.680;9.166;2023-03-01T08:43:35;5.50;89.60
6752;DHT22;3413;47.680;9.166;2023-03-01T08:48:37;5.50;89.70
6752;DHT22;3413;47.680;9.166;2023-03-01T08:53:40;5.60;90.20
6752;DHT22;3413;47.680;9.166;2023-03-01T08:58:46;5.60;89.70
6752;DHT22;3413;47.680;9.166;2023-03-01T09:03:48;5.60;89.80
6752;DHT22;3413;47.680;9.166;2023-03-01T09:08:50;5.60;89.80
6752;DHT22;3413;47.680;9.166;2023-03-01T09:13:52;5.50;89.70
6752;DHT22;3413;47.680;9.166;2023-03-01T09:18:55;5.60;89.80
6752;DHT22;3413;47.680;9.166;2023-03-01T09:23:57;5.70;90.00
6752;DHT22;3413;47.680;9.166;2023-03-01T09:28:59;5.70;90.00
6752;DHT22;3413;47.680;9.166;2023-03-01T09:34:01;5.70;90.00
6752;DHT22;3413;47.680;9.166;2023-03-01T09:39:04;5.80;90.00
6752;DHT22;3413;47.680;9.166;2023-03-01T09:49:30;5.90;90.10
6752;DHT22;3413;47.680;9.166;2023-03-01T09:54:33;5.90;90.10
6752;DHT22;3413;47.680;9.166;2023-03-01T10:10:44;5.80;90.10
6752;DHT22;3413;47.680;9.166;2023-03-01T10:15:54;5.80;90.10
6752;DHT22;3413;47.680;9.166;2023-03-01T10:21:22;5.90;90.10
6752;DHT22;3413;47.680;9.166;2023-03-01T10:26:58;5.90;90.10
6752;DHT22;3413;47.680;9.166;2023-03-01T10:32:04;6.00;90.20
6752;DHT22;3413;47.680;9.166;2023-03-01T10:37:17;6.00;90.20
6752;DHT22;3413;47.680;9.166;2023-03-01T10:42:33;6.00;90.20
6752;DHT22;3413;47.680;9.166;2023-03-01T10:47:35;6.00;90.20
6752;DHT22;3413;47.680;9.166;2023-03-01T10:52:40;6.00;90.20
6752;DHT22;3413;47.680;9.166;2023-03-01T10:57:42;6.00;90.20
6752;DHT22;3413;47.680;9.166;2023-03-01T11:03:09;6.00;90.20
6752;DHT22;3413;47.680;9.166;2023-03-01T11:08:12;6.00;90.20
6752;DHT22;3413;47.680;9.166;2023-03-01T11:13:17;6.20;90.30
6752;DHT22;3413;47.680;9.166;2023-03-01T11:18:21;6.20;90.30
6752;DHT22;3413;47.680;9.166;2023-03-01T11:23:39;6.20;90.30
6752;DHT22;3413;47.680;9.166;2023-03-01T11:28:55;6.10;90.20
6752;DHT22;3413;47.680;9.166;2023-03-01T11:34:13;6.20;90.30
6752;DHT22;3413;47.680;9.166;2023-03-01T11:39:47;6.30;90.30
6752;DHT22;3413;47.680;9.166;2023-03-01T11:44:55;6.30;90.30
6752;DHT22;3413;47.680;9.166;2023-03-01T11:56:03;6.20;90.30
6752;DHT22;3413;47.680;9.166;2023-03-01T12:22:20;6.20;90.30
6752;DHT22;3413;47.680;9.166;2023-03-01T12:38:51;6.30;90.30
6752;DHT22;3413;47.680;9.166;2023-03-01T12:44:30;6.30;90.30
6752;DHT22;3413;47.680;9.166;2023-03-01T12:49:52;6.30;90.20
6752;DHT22;3413;47.680;9.166;2023-03-01T12:54:57;6.30;90.30
6752;DHT22;3413;47.680;9.166;2023-03-01T13:15:33;6.40;90.30
6752;DHT22;3413;47.680;9.166;2023-03-01T13:31:03;6.60;90.40
6752;DHT22;3413;47.680;9.166;2023-03-01T13:36:06;6.50;90.40
6752;DHT22;3413;47.680;9.166;2023-03-01T13:41:10;6.60;90.40
6752;DHT22;3413;47.680;9.166;2023-03-01T13:46:23;6.60;90.40
6752;DHT22;3413;47.680;9.166;2023-03-01T13:51:27;6.60;90.40
6752;DHT22;3413;47.680;9.166;2023-03-01T13:56:36;6.70;90.50
6752;DHT22;3413;47.680;9.166;2023-03-01T14:01:38;6.80;90.50
6752;DHT22;3413;47.680;9.166;2023-03-01T14:06:44;6.90;90.50
6752;DHT22;3413;47.680;9.166;2023-03-01T14:17:47;6.90;90.50
6752;DHT22;3413;47.680;9.166;2023-03-01T14:22:54;6.90;90.50
6752;DHT22;3413;47.680;9.166;2023-03-01T14:28:17;6.90;90.50
6752;DHT22;3413;47.680;9.166;2023-03-01T14:33:26;6.90;90.50
6752;DHT22;3413;47.680;9.166;2023-03-01T14:38:42;7.00;90.60
6752;DHT22;3413;47.680;9.166;2023-03-01T14:43:53;7.00;90.60
6752;DHT22;3413;47.680;9.166;2023-03-01T14:49:05;7.00;90.60
6752;DHT22;3413;47.680;9.166;2023-03-01T14:54:23;7.20;90.60
6752;DHT22;3413;47.680;9.166;2023-03-01T14:59:26;7.10;90.60
6752;DHT22;3413;47.680;9.166;2023-03-01T15:04:29;7.10;90.90
6752;DHT22;3413;47.680;9.166;2023-03-01T15:09:34;7.10;90.60
6752;DHT22;3413;47.680;9.166;2023-03-01T15:14:43;7.10;90.60
6752;DHT22;3413;47.680;9.166;2023-03-01T15:19:59;7.00;90.50
6752;DHT22;3413;47.680;9.166;2023-03-01T15:25:02;7.00;90.50
6752;DHT22;3413;47.680;9.166;2023-03-01T15:30:04;7.00;90.50
6752;DHT22;3413;47.680;9.166;2023-03-01T15:35:41;7.00;90.50
6752;DHT22;3413;47.680;9.166;2023-03-01T15:40:50;7.10;90.60
6752;DHT22;3413;47.680;9.166;2023-03-01T15:45:58;7.10;90.60
6752;DHT22;3413;47.680;9.166;2023-03-01T15:51:00;7.20;90.60
6752;DHT22;3413;47.680;9.166;2023-03-01T15:56:03;7.10;90.60
6752;DHT22;3413;47.680;9.166;2023-03-01T16:01:12;7.20;90.60
6752;DHT22;3413;47.680;9.166;2023-03-01T16:06:14;7.20;90.60
6752;DHT22;3413;47.680;9.166;2023-03-01T16:11:24;7.20;90.60
6752;DHT22;3413;47.680;9.166;2023-03-01T16:16:32;7.30;90.70
6752;DHT22;3413;47.680;9.166;2023-03-01T16:21:37;7.30;90.70
6752;DHT22;3413;47.680;9.166;2023-03-01T16:26:39;7.30;90.70
6752;DHT22;3413;47.680;9.166;2023-03-01T16:31:41;7.30;90.70
6752;DHT22;3413;47.680;9.166;2023-03-01T16:36:44;7.30;90.70
6752;DHT22;3413;47.680;9.166;2023-03-01T16:41:48;7.40;90.70
6752;DHT22;3413;47.680;9.166;2023-03-01T16:46:54;7.40;90.70
6752;DHT22;3413;47.680;9.166;2023-03-01T16:51:56;7.40;90.60
6752;DHT22;3413;47.680;9.166;2023-03-01T16:57:00;7.40;90.70
6752;DHT22;3413;47.680;9.166;2023-03-01T17:02:03;7.30;90.60
6752;DHT22;3413;47.680;9.166;2023-03-01T17:07:07;7.30;90.70
6752;DHT22;3413;47.680;9.166;2023-03-01T17:12:16;7.30;90.60
6752;DHT22;3413;47.680;9.166;2023-03-01T17:17:21;7.30;90.60
6752;DHT22;3413;47.680;9.166;2023-03-01T17:27:40;7.30;90.60
6752;DHT22;3413;47.680;9.166;2023-03-01T17:32:47;7.30;90.60
6752;DHT22;3413;47.680;9.166;2023-03-01T17:37:50;7.40;90.70
6752;DHT22;3413;47.680;9.166;2023-03-01T17:42:54;7.40;90.70
6752;DHT22;3413;47.680;9.166;2023-03-01T17:47:57;7.40;90.70
6752;DHT22;3413;47.680;9.166;2023-03-01T17:52:59;7.30;90.60
6752;DHT22;3413;47.680;9.166;2023-03-01T17:58:01;7.30;90.70
6752;DHT22;3413;47.680;9.166;2023-03-01T18:03:03;7.30;90.70
6752;DHT22;3413;47.680;9.166;2023-03-01T18:08:06;7.40;90.70
6752;DHT22;3413;47.680;9.166;2023-03-01T18:13:08;7.40;90.70
6752;DHT22;3413;47.680;9.166;2023-03-01T18:18:10;7.30;90.70
6752;DHT22;3413;47.680;9.166;2023-03-01T18:23:12;7.40;90.70
6752;DHT22;3413;47.680;9.166;2023-03-01T18:28:14;7.50;90.70
6752;DHT22;3413;47.680;9.166;2023-03-01T18:33:16;7.40;90.70
6752;DHT22;3413;47.680;9.166;2023-03-01T18:38:18;7.40;90.70
6752;DHT22;3413;47.680;9.166;2023-03-01T18:43:20;7.40;90.70
6752;DHT22;3413;47.680;9.166;2023-03-01T18:48:22;7.40;90.70
6752;DHT22;3413;47.680;9.166;2023-03-01T18:53:24;7.40;90.70
6752;DHT22;3413;47.680;9.166;2023-03-01T18:58:26;7.50;90.80
6752;DHT22;3413;47.680;9.166;2023-03-01T19:03:29;7.50;90.80
6752;DHT22;3413;47.680;9.166;2023-03-01T19:08:31;7.50;90.80
6752;DHT22;3413;47.680;9.166;2023-03-01T19:13:34;7.50;90.80
6752;DHT22;3413;47.680;9.166;2023-03-01T19:18:40;7.50;90.80
6752;DHT22;3413;47.680;9.166;2023-03-01T19:23:42;7.60;90.80
6752;DHT22;3413;47.680;9.166;2023-03-01T19:28:45;7.70;90.90
6752;DHT22;3413;47.680;9.166;2023-03-01T19:33:47;7.70;90.80
6752;DHT22;3413;47.680;9.166;2023-03-01T19:38:48;7.70;90.80
6752;DHT22;3413;47.680;9.166;2023-03-01T19:43:50;7.70;90.80
6752;DHT22;3413;47.680;9.166;2023-03-01T19:48:52;7.70;90.90
6752;DHT22;3413;47.680;9.166;2023-03-01T19:53:54;7.70;90.90
6752;DHT22;3413;47.680;9.166;2023-03-01T19:58:56;7.70;90.90
6752;DHT22;3413;47.680;9.166;2023-03-01T20:04:01;7.70;90.80
6752;DHT22;3413;47.680;9.166;2023-03-01T20:09:05;7.60;90.80
6752;DHT22;3413;47.680;9.166;2023-03-01T20:14:21;7.50;90.80
6752;DHT22;3413;47.680;9.166;2023-03-01T20:19:24;7.40;91.00
6752;DHT22;3413;47.680;9.166;2023-03-01T20:24:26;7.30;90.70
6752;DHT22;3413;47.680;9.166;2023-03-01T20:29:28;7.50;90.80
6752;DHT22;3413;47.680;9.166;2023-03-01T20:34:30;7.50;90.80
6752;DHT22;3413;47.680;9.166;2023-03-01T20:39:32;7.60;90.80
6752;DHT22;3413;47.680;9.166;2023-03-01T20:44:34;7.70;90.80
6752;DHT22;3413;47.680;9.166;2023-03-01T20:49:36;7.70;90.80
6752;DHT22;3413;47.680;9.166;2023-03-01T20:54:38;7.70;90.80
6752;DHT22;3413;47.680;9.166;2023-03-01T20:59:40;7.70;90.80
6752;DHT22;3413;47.680;9.166;2023-03-01T21:04:42;7.80;90.90
6752;DHT22;3413;47.680;9.166;2023-03-01T21:09:44;7.80;90.90
6752;DHT22;3413;47.680;9.166;2023-03-01T21:14:46;7.90;90.90
6752;DHT22;3413;47.680;9.166;2023-03-01T21:19:47;7.80;90.90
6752;DHT22;3413;47.680;9.166;2023-03-01T21:24:51;7.80;91.00
6752;DHT22;3413;47.680;9.166;2023-03-01T21:29:53;7.80;91.00
6752;DHT22;3413;47.680;9.166;2023-03-01T21:34:55;7.80;91.00
6752;DHT22;3413;47.680;9.166;2023-03-01T21:39:57;7.80;91.00
6752;DHT22;3413;47.680;9.166;2023-03-01T21:44:58;7.80;91.00
6752;DHT22;3413;47.680;9.166;2023-03-01T21:50:00;7.90;91.00
6752;DHT22;3413;47.680;9.166;2023-03-01T21:55:02;7.90;91.00
6752;DHT22;3413;47.680;9.166;2023-03-01T22:00:05;7.80;91.00
6752;DHT22;3413;47.680;9.166;2023-03-01T22:05:13;7.90;91.00
6752;DHT22;3413;47.680;9.166;2023-03-01T22:10:15;7.80;91.00
6752;DHT22;3413;47.680;9.166;2023-03-01T22:15:17;7.80;91.00
6752;DHT22;3413;47.680;9.166;2023-03-01T22:20:19;7.80;91.00
6752;DHT22;3413;47.680;9.166;2023-03-01T22:25:21;7.90;91.00
6752;DHT22;3413;47.680;9.166;2023-03-01T22:30:23;7.80;91.00
6752;DHT22;3413;47.680;9.166;2023-03-01T22:35:25;7.90;91.00
6752;DHT22;3413;47.680;9.166;2023-03-01T22:40:27;7.90;91.00
6752;DHT22;3413;47.680;9.166;2023-03-01T22:45:30;7.90;91.00
6752;DHT22;3413;47.680;9.166;2023-03-01T22:50:33;7.80;91.00
6752;DHT22;3413;47.680;9.166;2023-03-01T22:55:35;7.90;91.00
6752;DHT22;3413;47.680;9.166;2023-03-01T23:00:36;7.90;91.00
6752;DHT22;3413;47.680;9.166;2023-03-01T23:05:38;8.00;91.00
6752;DHT22;3413;47.680;9.166;2023-03-01T23:10:40;8.00;91.00
6752;DHT22;3413;47.680;9.166;2023-03-01T23:15:42;7.90;91.00
6752;DHT22;3413;47.680;9.166;2023-03-01T23:20:45;7.90;91.00
6752;DHT22;3413;47.680;9.166;2023-03-01T23:25:54;7.90;91.00
6752;DHT22;3413;47.680;9.166;2023-03-01T23:31:02;7.90;91.00
6752;DHT22;3413;47.680;9.166;2023-03-01T23:36:29;7.90;91.00
6752;DHT22;3413;47.680;9.166;2023-03-01T23:41:34;7.90;91.00
6752;DHT22;3413;47.680;9.166;2023-03-01T23:46:39;7.90;91.00
6752;DHT22;3413;47.680;9.166;2023-03-01T23:51:42;7.90;91.00
6752;DHT22;3413;47.680;9.166;2023-03-01T23:56:51;7.80;91.00
